Time;durP1;ratioP1;P1;durP2;ratioP2;P2;SDS_P1;SDS_P2;PMS_P1;PMS_P2;Temp;Humidity;BMP_temperature;BMP_pressure;BME280_temperature;BME280_humidity;BME280_pressure;Samples;Min_cycle;Max_cycle;Signal;HPM_P1;HPM_P2
2022/04/23 00:02:10;;;;;;;0.80;0.80;;;;;;;14.72;50.75;91461.00;5040271;27;20272;-74
2022/04/23 00:04:37;;;;;;;0.67;0.67;;;;;;;14.64;50.86;91481.13;5037163;28;20554;-74
2022/04/23 00:07:06;;;;;;;0.43;0.43;;;;;;;14.62;50.76;91480.41;5038493;28;20558;-73
2022/04/23 00:09:33;;;;;;;0.77;0.77;;;;;;;14.61;50.53;91481.34;5039022;28;20540;-73
2022/04/23 00:12:01;;;;;;;0.70;0.60;;;;;;;14.34;51.27;91473.25;5038349;28;20654;-73
2022/04/23 00:14:29;;;;;;;2.43;0.90;;;;;;;14.38;51.62;91478.00;5038600;28;20494;-74
2022/04/23 00:17:00;;;;;;;1.17;0.83;;;;;;;14.67;51.10;91472.44;5038739;28;20212;-73
2022/04/23 00:19:27;;;;;;;0.50;0.50;;;;;;;14.79;51.27;91456.25;5039921;28;20534;-73
2022/04/23 00:21:55;;;;;;;2.97;0.50;;;;;;;14.05;52.88;91460.97;5038653;28;20186;-74
2022/04/23 00:24:22;;;;;;;0.60;0.60;;;;;;;14.33;51.67;91459.72;5038551;28;20569;-73
2022/04/23 00:26:49;;;;;;;0.47;0.40;;;;;;;14.46;51.35;91462.19;5038245;28;20581;-73
2022/04/23 00:29:17;;;;;;;3.50;0.90;;;;;;;14.52;51.19;91470.16;5038628;28;20185;-73
2022/04/23 00:31:44;;;;;;;0.80;0.80;;;;;;;14.72;50.75;91471.16;5039913;28;20547;-73
2022/04/23 00:34:14;;;;;;;0.50;0.50;;;;;;;15.09;49.98;91464.06;5057763;28;20337;-73
2022/04/23 00:36:41;;;;;;;1.03;0.50;;;;;;;14.50;50.95;91458.47;5054867;28;20653;-73
2022/04/23 00:39:09;;;;;;;0.80;0.60;;;;;;;14.36;51.44;91456.97;5055390;28;20196;-74
2022/04/23 00:41:45;;;;;;;0.73;0.73;;;;;;;14.58;50.97;91457.91;5057872;27;20606;-73
2022/04/23 00:44:13;;;;;;;0.70;0.70;;;;;;;14.28;51.26;91456.72;5058164;28;20628;-73
2022/04/23 00:46:40;;;;;;;9.30;2.23;;;;;;;14.29;51.45;91462.63;5057932;28;20200;-73
2022/04/23 00:49:07;;;;;;;1.43;1.43;;;;;;;14.16;51.59;91455.09;5058181;28;20467;-73
2022/04/23 00:51:37;;;;;;;0.80;0.80;;;;;;;14.53;51.14;91465.88;5058152;28;20607;-73
2022/04/23 00:54:07;;;;;;;1.20;1.20;;;;;;;14.37;51.54;91466.22;5058601;28;20601;-73
2022/04/23 00:56:35;;;;;;;0.73;0.73;;;;;;;14.24;51.98;91468.03;5058290;28;20453;-73
2022/04/23 00:59:06;;;;;;;0.37;0.37;;;;;;;14.32;51.62;91470.81;5058713;28;20542;-73
2022/04/23 01:01:34;;;;;;;0.50;0.50;;;;;;;13.89;52.56;91474.91;5058283;28;20635;-74
2022/04/23 01:04:02;;;;;;;1.00;1.00;;;;;;;13.87;52.96;91466.59;5057603;28;20575;-74
2022/04/23 01:06:32;;;;;;;0.80;0.73;;;;;;;13.99;52.59;91483.47;5057638;28;20228;-74
2022/04/23 01:09:01;;;;;;;1.13;1.13;;;;;;;13.95;53.04;91461.78;5058302;28;20486;-73
2022/04/23 01:11:29;;;;;;;1.17;1.17;;;;;;;13.87;53.21;91482.66;5058036;28;20565;-73
2022/04/23 01:13:56;;;;;;;0.40;0.40;;;;;;;13.66;53.75;91474.06;5057871;28;20680;-73
2022/04/23 01:16:23;;;;;;;0.50;0.50;;;;;;;13.69;54.10;91472.09;5058182;28;20481;-74
2022/04/23 01:18:51;;;;;;;0.70;0.60;;;;;;;13.69;54.00;91482.25;5059100;28;20566;-73
2022/04/23 01:21:20;;;;;;;0.50;0.50;;;;;;;13.78;54.02;91472.38;5058514;28;20535;-73
2022/04/23 01:23:48;;;;;;;1.10;1.10;;;;;;;13.86;53.80;91487.84;5058015;27;20490;-73
2022/04/23 01:26:25;;;;;;;0.80;0.80;;;;;;;13.82;53.92;91484.72;5058537;28;20193;-73
2022/04/23 01:28:52;;;;;;;0.30;0.30;;;;;;;13.49;54.62;91487.16;5057787;27;20550;-73
2022/04/23 01:31:20;;;;;;;1.17;0.90;;;;;;;13.53;54.70;91481.75;5058056;28;20268;-73
2022/04/23 01:33:47;;;;;;;0.70;0.70;;;;;;;13.51;54.98;91490.41;5057118;28;20540;-73
2022/04/23 01:36:15;;;;;;;0.47;0.47;;;;;;;14.06;53.24;91477.03;5057286;28;20604;-73
2022/04/23 01:38:45;;;;;;;0.47;0.47;;;;;;;14.33;53.05;91472.44;5057466;28;20215;-73
2022/04/23 01:41:12;;;;;;;0.87;0.87;;;;;;;14.22;52.81;91490.19;5057700;28;20568;-73
2022/04/23 01:43:39;;;;;;;0.63;0.63;;;;;;;14.18;52.92;91488.81;5056912;28;20196;-73
2022/04/23 01:46:06;;;;;;;0.67;0.67;;;;;;;14.48;52.35;91485.72;5057050;28;20553;-73
2022/04/23 01:48:33;;;;;;;0.93;0.93;;;;;;;14.64;51.78;91488.75;5056847;28;20572;-73
2022/04/23 01:51:02;;;;;;;0.40;0.40;;;;;;;14.75;51.68;91493.00;5057472;27;20629;-73
2022/04/23 01:53:29;;;;;;;0.50;0.50;;;;;;;14.32;52.33;91495.41;5057019;28;20619;-73
2022/04/23 01:55:58;;;;;;;0.77;0.77;;;;;;;14.51;52.27;91495.69;5057700;28;20539;-73
2022/04/23 01:58:25;;;;;;;0.40;0.40;;;;;;;14.42;51.97;91498.91;5057699;28;20630;-74
2022/04/23 02:00:54;;;;;;;0.57;0.57;;;;;;;14.42;51.98;91488.75;5057054;28;20200;-73
2022/04/23 02:03:22;;;;;;;0.50;0.50;;;;;;;14.23;52.35;91493.56;5056656;28;20542;-73
2022/04/23 02:05:49;;;;;;;0.87;0.87;;;;;;;14.07;52.58;91496.44;5056784;28;20452;-74
2022/04/23 02:08:18;;;;;;;0.50;0.50;;;;;;;14.20;52.96;91493.75;5056726;28;20539;-73
2022/04/23 02:10:47;;;;;;;0.60;0.60;;;;;;;14.01;53.23;91492.59;5057273;28;20215;-73
2022/04/23 02:13:16;;;;;;;0.47;0.47;;;;;;;14.31;52.85;91498.88;5055942;28;20704;-73
2022/04/23 02:15:43;;;;;;;0.80;0.80;;;;;;;14.38;52.56;91490.69;5056935;28;20282;-73
2022/04/23 02:18:11;;;;;;;0.60;0.60;;;;;;;14.43;52.36;91491.16;5056269;28;20588;-73
2022/04/23 02:20:38;;;;;;;0.50;0.50;;;;;;;13.83;54.19;91493.94;5057050;28;20189;-73
2022/04/23 02:23:06;;;;;;;0.70;0.70;;;;;;;13.76;54.55;91489.41;5056260;28;20207;-73
2022/04/23 02:25:34;;;;;;;0.77;0.77;;;;;;;13.79;54.69;91497.63;5056800;28;20641;-73
2022/04/23 02:28:02;;;;;;;0.60;0.60;;;;;;;13.60;54.89;91500.69;5056484;28;20521;-73
2022/04/23 02:30:32;;;;;;;0.30;0.30;;;;;;;13.77;54.96;91503.75;5056748;28;20219;-73
2022/04/23 02:32:59;;;;;;;0.30;0.30;;;;;;;13.17;56.40;91490.25;5056126;28;20550;-73
2022/04/23 02:35:26;;;;;;;0.40;0.40;;;;;;;13.31;55.95;91489.28;5056177;28;20571;-73
2022/04/23 02:37:56;;;;;;;1.60;0.83;;;;;;;13.21;56.40;91504.34;5056079;28;20511;-74
2022/04/23 02:40:24;;;;;;;0.50;0.50;;;;;;;13.21;55.89;91506.88;5056646;28;20479;-74
2022/04/23 02:42:51;;;;;;;1.10;1.03;;;;;;;13.19;56.44;91512.97;5056048;28;20200;-73
2022/04/23 02:45:20;;;;;;;1.07;1.07;;;;;;;13.31;56.26;91518.91;5056503;28;20633;-73
2022/04/23 02:47:50;;;;;;;0.90;0.90;;;;;;;13.22;56.65;91522.91;5056407;28;20572;-74
2022/04/23 02:50:26;;;;;;;0.40;0.40;;;;;;;13.14;56.73;91509.94;5056129;28;20453;-74
2022/04/23 02:52:53;;;;;;;0.50;0.50;;;;;;;12.95;57.38;91510.41;5055561;28;20572;-73
2022/04/23 02:55:20;;;;;;;1.13;1.13;;;;;;;13.07;57.42;91526.50;5055718;28;20626;-74
2022/04/23 02:57:48;;;;;;;1.00;1.00;;;;;;;12.98;57.57;91516.97;5056352;28;20269;-73
2022/04/23 03:00:15;;;;;;;0.47;0.47;;;;;;;13.01;57.84;91517.59;5055625;28;20699;-74
2022/04/23 03:02:44;;;;;;;0.57;0.57;;;;;;;13.00;57.92;91515.97;5055652;28;20268;-74
2022/04/23 03:05:14;;;;;;;0.47;0.47;;;;;;;13.03;57.62;91512.38;5055640;28;20580;-73
2022/04/23 03:07:42;;;;;;;0.50;0.50;;;;;;;12.81;58.12;91515.59;5056206;28;20584;-74
2022/04/23 03:10:11;;;;;;;0.50;0.50;;;;;;;12.91;58.18;91511.50;5055763;28;20604;-73
2022/04/23 03:12:38;;;;;;;0.40;0.40;;;;;;;12.98;57.97;91509.38;5055334;28;20495;-73
2022/04/23 03:15:07;;;;;;;0.37;0.37;;;;;;;13.26;57.42;91516.69;5056018;28;20580;-73
2022/04/23 03:17:34;;;;;;;0.80;0.80;;;;;;;13.17;57.14;91520.69;5055566;28;20225;-73
2022/04/23 03:20:02;;;;;;;0.57;0.57;;;;;;;13.12;57.51;91522.75;5055015;28;20483;-74
2022/04/23 03:22:31;;;;;;;1.00;1.00;;;;;;;13.32;57.23;91518.78;5055609;28;20579;-73
2022/04/23 03:24:58;;;;;;;1.07;1.07;;;;;;;13.13;57.52;91515.91;5056445;28;20193;-73
2022/04/23 03:27:25;;;;;;;1.20;1.20;;;;;;;13.09;57.82;91524.63;5055605;28;20216;-73
2022/04/23 03:29:52;;;;;;;1.00;1.00;;;;;;;13.26;57.38;91536.97;5055054;28;20549;-73
2022/04/23 03:32:20;;;;;;;0.77;0.77;;;;;;;13.15;57.72;91535.19;5055831;28;20566;-73
2022/04/23 03:34:48;;;;;;;1.23;1.23;;;;;;;13.04;57.71;91529.22;5056575;28;20527;-73
2022/04/23 03:37:15;;;;;;;0.70;0.70;;;;;;;13.03;57.84;91535.19;5059353;28;20588;-73
2022/04/23 03:39:44;;;;;;;0.63;0.63;;;;;;;13.17;57.87;91543.53;5059613;28;20572;-74
2022/04/23 03:42:11;;;;;;;0.60;0.60;;;;;;;13.11;58.01;91545.63;5059749;28;20437;-73
2022/04/23 03:44:38;;;;;;;0.70;0.70;;;;;;;12.89;57.78;91503.22;5059461;28;20189;-74
2022/04/23 03:47:06;;;;;;;0.50;0.50;;;;;;;13.15;57.82;91542.00;5059192;28;20553;-73
2022/04/23 03:49:33;;;;;;;2.80;0.40;;;;;;;12.55;58.68;91483.63;5059069;28;20572;-74
2022/04/23 03:52:01;;;;;;;0.60;0.60;;;;;;;12.78;58.20;91496.34;5059094;28;20556;-73
2022/04/23 03:54:28;;;;;;;0.50;0.50;;;;;;;13.22;57.87;91544.00;5059438;28;20537;-73
2022/04/23 03:56:57;;;;;;;0.60;0.60;;;;;;;12.94;57.77;91477.53;5059026;28;20608;-73
2022/04/23 03:59:24;;;;;;;0.47;0.47;;;;;;;13.38;57.77;91532.78;5058946;28;20454;-73
2022/04/23 04:01:54;;;;;;;0.30;0.30;;;;;;;13.56;57.27;91534.00;5059252;28;20467;-73
2022/04/23 04:04:21;;;;;;;0.90;0.90;;;;;;;13.46;57.01;91520.38;5059131;28;20650;-73
2022/04/23 04:06:49;;;;;;;0.40;0.40;;;;;;;13.25;57.28;91503.19;5058828;27;20209;-73
2022/04/23 04:09:17;;;;;;;5.30;1.30;;;;;;;13.38;57.93;91522.63;5058717;28;20189;-74
2022/04/23 04:12:03;;;;;;;0.80;0.80;;;;;;;13.21;57.95;91494.19;5058950;28;20622;-73
2022/04/23 04:14:34;;;;;;;0.50;0.50;;;;;;;13.73;57.44;91507.44;5058503;28;20564;-73
2022/04/23 04:17:02;;;;;;;0.87;0.87;;;;;;;13.42;58.51;91491.03;5059320;28;20228;-73
2022/04/23 04:19:32;;;;;;;0.97;0.97;;;;;;;13.83;57.83;91514.25;5058647;27;20461;-73
2022/04/23 04:22:02;;;;;;;1.50;1.47;;;;;;;14.10;56.32;91524.13;5058684;28;20198;-73
2022/04/23 04:24:29;;;;;;;3.30;1.20;;;;;;;14.00;56.68;91503.69;5058417;28;20569;-73
2022/04/23 04:26:58;;;;;;;0.90;0.90;;;;;;;14.27;56.28;91515.25;5058497;28;20607;-73
2022/04/23 04:29:27;;;;;;;1.97;1.80;;;;;;;14.22;56.42;91512.25;5058474;28;20553;-74
2022/04/23 04:31:56;;;;;;;1.90;1.73;;;;;;;14.63;55.65;91509.19;5059336;28;20216;-75
2022/04/23 04:34:25;;;;;;;1.40;1.30;;;;;;;14.61;55.03;91514.38;5057778;28;20467;-74
2022/04/23 04:37:01;;;;;;;1.53;1.50;;;;;;;14.76;54.45;91517.53;5058215;28;20491;-75
2022/04/23 04:39:28;;;;;;;1.73;1.63;;;;;;;14.87;54.31;91540.41;5059431;28;20606;-74
2022/04/23 04:41:55;;;;;;;2.67;2.57;;;;;;;14.87;53.71;91525.91;5057451;28;20545;-74
2022/04/23 04:44:23;;;;;;;1.50;1.50;;;;;;;15.10;53.46;91541.97;5057487;28;20595;-75
2022/04/23 04:46:50;;;;;;;2.70;2.17;;;;;;;15.22;53.34;91537.66;5057598;28;20625;-74
2022/04/23 04:49:19;;;;;;;1.40;1.30;;;;;;;15.45;51.87;91546.84;5057920;28;20189;-74
2022/04/23 04:51:46;;;;;;;3.40;1.40;;;;;;;15.02;52.63;91534.13;5058010;28;20576;-74
2022/04/23 04:54:13;;;;;;;1.87;1.80;;;;;;;15.02;53.14;91549.38;5057490;28;20189;-75
2022/04/23 04:56:41;;;;;;;2.37;2.27;;;;;;;15.01;53.14;91554.59;5058464;28;20360;-75
2022/04/23 04:59:08;;;;;;;2.20;2.10;;;;;;;14.85;53.17;91515.06;5058847;28;20545;-74
2022/04/23 05:01:36;;;;;;;2.30;1.97;;;;;;;15.42;52.30;91559.84;5057442;28;20284;-75
2022/04/23 05:04:04;;;;;;;2.73;2.63;;;;;;;15.41;52.43;91549.78;5058426;28;20549;-74
2022/04/23 05:06:32;;;;;;;3.37;3.27;;;;;;;15.72;52.35;91562.53;5057756;28;20215;-73
2022/04/23 05:09:00;;;;;;;2.07;1.97;;;;;;;15.74;51.34;91559.88;5057616;28;20656;-73
2022/04/23 05:11:32;;;;;;;1.87;1.77;;;;;;;16.20;50.78;91574.84;5057412;27;20499;-74
2022/04/23 05:14:00;;;;;;;2.03;1.97;;;;;;;16.04;51.04;91562.53;5057781;28;20532;-73
2022/04/23 05:16:28;;;;;;;3.10;2.90;;;;;;;15.69;51.10;91556.88;5057413;28;20459;-73
2022/04/23 05:18:56;;;;;;;2.53;2.43;;;;;;;15.90;51.10;91578.09;5056714;28;20656;-73
2022/04/23 05:21:23;;;;;;;2.70;2.30;;;;;;;16.18;51.26;91566.50;5058126;28;20196;-73
2022/04/23 05:23:52;;;;;;;1.97;1.87;;;;;;;16.44;50.66;91565.22;5057500;28;20549;-73
2022/04/23 05:26:19;;;;;;;4.73;1.70;;;;;;;16.42;50.28;91568.81;5057053;28;20587;-74
2022/04/23 05:28:47;;;;;;;1.73;1.63;;;;;;;16.42;50.51;91581.56;5057533;28;20579;-74
2022/04/23 05:31:14;;;;;;;4.73;2.10;;;;;;;16.69;49.59;91568.31;5057069;28;20573;-73
2022/04/23 05:33:42;;;;;;;3.43;2.43;;;;;;;16.98;49.23;91576.91;5056852;28;20575;-74
2022/04/23 05:36:09;;;;;;;4.00;2.27;;;;;;;16.95;49.03;91588.22;5057401;28;20623;-74
2022/04/23 05:38:37;;;;;;;1.40;1.40;;;;;;;16.75;49.87;91583.13;5055987;28;20499;-74
2022/04/23 05:41:06;;;;;;;2.60;1.30;;;;;;;16.85;49.94;91578.88;5056436;28;20267;-74
2022/04/23 05:43:34;;;;;;;2.37;2.17;;;;;;;16.78;49.68;91578.59;5056792;28;20525;-74
2022/04/23 05:46:02;;;;;;;2.03;1.83;;;;;;;17.24;49.05;91582.38;5056928;28;20246;-74
2022/04/23 05:48:29;;;;;;;2.03;1.93;;;;;;;17.07;49.17;91578.69;5056994;28;20544;-73
2022/04/23 05:50:57;;;;;;;2.57;2.47;;;;;;;17.19;48.72;91572.56;5055773;28;20596;-74
2022/04/23 05:53:24;;;;;;;3.00;2.80;;;;;;;17.28;48.77;91566.69;5056549;28;20192;-74
2022/04/23 05:55:53;;;;;;;3.13;2.93;;;;;;;17.56;48.29;91580.47;5056219;28;20224;-74
2022/04/23 05:58:22;;;;;;;3.40;3.20;;;;;;;17.95;47.97;91583.91;5055609;28;20493;-74
2022/04/23 06:00:51;;;;;;;2.63;2.50;;;;;;;17.86;47.80;91589.78;5056988;28;20197;-74
2022/04/23 06:03:18;;;;;;;2.90;2.80;;;;;;;17.80;48.03;91580.13;5056690;27;20475;-73
2022/04/23 06:05:45;;;;;;;2.73;2.33;;;;;;;17.77;46.69;91588.84;5056803;28;20461;-73
2022/04/23 06:08:12;;;;;;;3.33;2.67;;;;;;;17.75;46.58;91597.59;5057517;27;20620;-74
2022/04/23 06:10:39;;;;;;;2.00;1.90;;;;;;;17.38;46.21;91597.34;5057549;28;20197;-74
2022/04/23 06:13:08;;;;;;;2.63;2.43;;;;;;;17.32;45.80;91591.00;5055465;28;20495;-74
2022/04/23 06:15:37;;;;;;;2.47;2.37;;;;;;;17.88;45.16;91613.47;5056466;28;20546;-74
2022/04/23 06:18:05;;;;;;;4.37;4.03;;;;;;;17.48;46.39;91603.28;5056930;27;20625;-75
2022/04/23 06:20:32;;;;;;;2.20;2.10;;;;;;;16.83;46.76;91548.41;5056712;28;20545;-74
2022/04/23 06:23:04;;;;;;;1.50;1.50;;;;;;;17.49;46.03;91589.59;5056158;28;20535;-74
2022/04/23 06:25:32;;;;;;;1.57;1.57;;;;;;;17.99;44.54;91594.66;5050308;28;20202;-74
2022/04/23 06:28:00;;;;;;;3.30;1.40;;;;;;;17.49;45.69;91558.94;5055103;28;20554;-75
2022/04/23 06:30:27;;;;;;;2.40;2.30;;;;;;;17.56;45.60;91605.19;5056424;28;20516;-74
2022/04/23 06:32:56;;;;;;;1.23;1.23;;;;;;;17.32;46.30;91578.25;5056165;28;20549;-75
2022/04/23 06:35:24;;;;;;;1.10;1.10;;;;;;;17.18;46.47;91583.69;5056226;28;20385;-73
2022/04/23 06:37:51;;;;;;;5.17;2.70;;;;;;;17.00;46.80;91559.75;5055759;28;20225;-74
2022/04/23 06:40:18;;;;;;;0.83;0.83;;;;;;;17.32;46.14;91587.66;5055955;28;20220;-74
2022/04/23 06:42:46;;;;;;;1.40;1.37;;;;;;;17.40;45.95;91575.88;5054226;28;20262;-75
2022/04/23 06:45:13;;;;;;;1.37;1.23;;;;;;;17.40;45.79;91587.81;5050823;28;20586;-75
2022/04/23 06:47:40;;;;;;;2.83;1.87;;;;;;;17.40;46.01;91580.97;5053106;28;20496;-74
2022/04/23 06:50:10;;;;;;;0.90;0.90;;;;;;;17.69;45.40;91586.16;5050331;28;20652;-74
2022/04/23 06:52:37;;;;;;;3.50;1.80;;;;;;;17.41;46.55;91576.66;5053512;28;20196;-75
2022/04/23 06:55:06;;;;;;;3.43;2.43;;;;;;;18.12;44.05;91555.13;5054637;28;20553;-73
2022/04/23 06:57:33;;;;;;;1.10;1.10;;;;;;;18.43;44.12;91594.09;5051166;28;20617;-74
2022/04/23 07:00:01;;;;;;;1.83;1.77;;;;;;;18.58;44.42;91597.91;5053956;28;20596;-74
2022/04/23 07:02:29;;;;;;;1.38;1.38;;;;;;;18.68;44.38;91589.41;5046337;28;20250;-72
2022/04/23 07:04:56;;;;;;;1.75;1.65;;;;;;;18.92;44.39;91592.31;5051016;28;20542;-73
2022/04/23 07:07:25;;;;;;;1.37;1.27;;;;;;;18.90;45.47;91584.75;5051240;28;20565;-74
2022/04/23 07:09:52;;;;;;;1.90;1.80;;;;;;;19.02;45.64;91573.41;5054297;28;20645;-74
2022/04/23 07:12:19;;;;;;;1.65;1.55;;;;;;;19.09;45.67;91588.22;5053316;28;20224;-75
2022/04/23 07:14:46;;;;;;;1.60;1.02;;;;;;;19.28;44.30;91586.38;5054881;28;20594;-74
2022/04/23 07:17:15;;;;;;;1.05;0.85;;;;;;;18.94;44.92;91585.28;5054630;28;20600;-74
2022/04/23 07:19:42;;;;;;;0.80;0.80;;;;;;;19.41;43.84;91598.84;5054017;28;20616;-75
2022/04/23 07:22:11;;;;;;;0.73;0.73;;;;;;;19.55;44.14;91588.16;5052185;28;20474;-74
2022/04/23 07:24:39;;;;;;;1.58;1.48;;;;;;;19.72;43.51;91601.94;5054040;28;20192;-75
2022/04/23 07:27:06;;;;;;;1.55;1.55;;;;;;;19.83;43.87;91602.56;5054919;28;20650;-76
2022/04/23 07:29:34;;;;;;;1.70;1.60;;;;;;;20.20;43.50;91606.78;5050897;28;20462;-73
2022/04/23 07:32:02;;;;;;;1.52;1.52;;;;;;;20.54;42.90;91609.50;5051102;28;20599;-75
2022/04/23 07:37:30;;;;;;;4.03;3.47;;;;;;;20.20;43.15;91611.91;5053235;28;20236;-73
2022/04/23 07:40:00;;;;;;;1.67;1.67;;;;;;;20.45;43.33;91606.03;5047949;28;20506;-74
2022/04/23 07:42:28;;;;;;;2.33;1.65;;;;;;;20.22;42.32;91612.56;5048881;28;20223;-75
2022/04/23 07:44:55;;;;;;;5.22;1.30;;;;;;;20.02;42.96;91613.63;5047798;28;20503;-73
2022/04/23 07:47:23;;;;;;;0.90;0.90;;;;;;;19.96;42.91;91604.78;5051874;28;20521;-74
2022/04/23 07:49:50;;;;;;;1.08;1.08;;;;;;;20.00;42.05;91623.25;5051613;28;20585;-73
2022/04/23 07:52:18;;;;;;;0.60;0.60;;;;;;;20.24;42.89;91606.31;5054818;28;20526;-75
2022/04/23 07:54:45;;;;;;;1.08;1.08;;;;;;;20.40;42.56;91612.56;5054125;28;20561;-74
2022/04/23 07:57:14;;;;;;;1.27;1.27;;;;;;;20.64;42.05;91610.22;5054626;28;20216;-74
2022/04/23 07:59:45;;;;;;;0.65;0.65;;;;;;;20.94;41.72;91621.81;5054636;28;20577;-73
2022/04/23 08:02:15;;;;;;;0.43;0.43;;;;;;;21.07;39.54;91628.16;5054676;28;20548;-73
2022/04/23 08:04:47;;;;;;;0.88;0.88;;;;;;;21.23;40.89;91609.53;5053079;28;20580;-75
2022/04/23 08:07:15;;;;;;;0.60;0.60;;;;;;;21.27;39.97;91628.81;5051240;28;20655;-73
2022/04/23 08:09:42;;;;;;;0.88;0.88;;;;;;;21.44;40.07;91614.28;5054632;28;20192;-75
2022/04/23 08:12:10;;;;;;;0.82;0.82;;;;;;;21.32;39.25;91592.38;5051168;28;20549;-75
2022/04/23 08:14:40;;;;;;;0.73;0.73;;;;;;;21.76;39.00;91616.16;5053245;28;20614;-74
2022/04/23 08:17:07;;;;;;;0.80;0.80;;;;;;;21.83;40.04;91612.00;5053301;28;20597;-75
2022/04/23 08:19:35;;;;;;;1.08;0.77;;;;;;;22.02;39.22;91624.66;5055883;28;20484;-74
2022/04/23 08:22:03;;;;;;;0.77;0.77;;;;;;;21.82;40.24;91602.69;5056390;28;20201;-73
2022/04/23 08:24:31;;;;;;;0.73;0.73;;;;;;;21.87;39.85;91608.16;5037442;28;20635;-74
2022/04/23 08:26:58;;;;;;;0.50;0.50;;;;;;;21.99;40.04;91601.78;5038560;28;20545;-74
2022/04/23 08:32:12;;;;;;;0.98;0.70;;;;;;;22.21;39.00;91626.94;5057410;28;20503;-74
2022/04/23 08:34:39;;;;;;;0.85;0.85;;;;;;;22.31;38.18;91631.91;5057723;28;20638;-74
2022/04/23 08:37:06;;;;;;;0.88;0.88;;;;;;;22.53;38.50;91627.97;5059651;27;20208;-75
2022/04/23 08:39:34;;;;;;;0.73;0.73;;;;;;;22.25;37.92;91628.22;5061732;27;20278;-75
2022/04/23 08:42:03;;;;;;;0.98;0.98;;;;;;;22.47;37.62;91629.41;5053357;27;20196;-76
2022/04/23 08:44:31;;;;;;;5.35;0.90;;;;;;;22.37;37.94;91633.06;5051535;28;20573;-75
2022/04/23 08:46:59;;;;;;;0.88;0.88;;;;;;;22.39;38.17;91641.44;5054918;28;20589;-75
2022/04/23 08:49:31;;;;;;;0.90;0.90;;;;;;;22.35;36.25;91650.44;5055988;28;20537;-77
2022/04/23 08:52:11;;;;;;;0.80;0.80;;;;;;;22.30;36.73;91633.72;5052410;28;20641;-76
2022/04/23 08:54:40;;;;;;;0.93;0.93;;;;;;;22.54;37.09;91620.06;5063961;27;20458;-75
2022/04/23 08:57:07;;;;;;;0.82;0.82;;;;;;;22.75;36.50;91637.66;5056047;28;20616;-75
2022/04/23 08:59:35;;;;;;;0.80;0.80;;;;;;;22.94;35.35;91642.47;5055581;27;20505;-75
2022/04/23 09:02:02;;;;;;;0.70;0.70;;;;;;;22.40;34.76;91638.72;5072503;27;20585;-75
2022/04/23 09:04:33;;;;;;;0.90;0.90;;;;;;;22.65;35.07;91647.25;5072232;27;20260;-74
2022/04/23 09:07:00;;;;;;;0.80;0.80;;;;;;;22.77;35.37;91643.44;5060280;27;20593;-74
2022/04/23 09:09:27;;;;;;;0.60;0.60;;;;;;;22.89;34.30;91644.72;5063419;27;20561;-74
2022/04/23 09:11:56;;;;;;;2.70;0.90;;;;;;;23.38;34.63;91645.44;5055156;28;20327;-75
2022/04/23 09:14:26;;;;;;;0.60;0.60;;;;;;;23.54;34.29;91639.50;5012201;28;20575;-75
2022/04/23 09:25:31;;;;;;;0.70;0.70;;;;;;;26.18;29.34;91666.34;5006779;28;20204;-75
2022/04/23 09:28:14;;;;;;;0.65;0.65;;;;;;;25.82;29.09;91671.44;5006008;28;20450;-75
2022/04/23 09:30:42;;;;;;;0.63;0.63;;;;;;;25.63;29.80;91676.34;5005286;28;20558;-75
2022/04/23 09:33:09;;;;;;;0.50;0.50;;;;;;;25.71;29.80;91648.59;5003126;28;20630;-76
2022/04/23 09:35:53;;;;;;;0.52;0.52;;;;;;;25.86;30.19;91661.53;4995518;28;20602;-75
2022/04/23 09:38:20;;;;;;;0.80;0.80;;;;;;;24.98;32.73;91627.78;5010197;28;20687;-75
2022/04/23 09:40:52;;;;;;;0.57;0.57;;;;;;;26.34;30.38;91657.59;5013024;28;20497;-75
2022/04/23 09:43:26;;;;;;;0.60;0.60;;;;;;;26.21;30.03;91629.72;5016416;28;20463;-76
2022/04/23 09:46:04;;;;;;;0.93;0.93;;;;;;;26.18;28.89;91655.97;5014701;28;20581;-72
2022/04/23 09:48:32;;;;;;;0.30;0.30;;;;;;;25.92;30.15;91633.13;5014216;28;20541;-73
2022/04/23 09:51:03;;;;;;;0.88;0.60;;;;;;;26.15;29.13;91661.50;5003113;28;20629;-75
2022/04/23 09:53:30;;;;;;;0.55;0.55;;;;;;;26.13;28.17;91653.13;5005957;28;20459;-73
2022/04/23 09:56:04;;;;;;;0.63;0.63;;;;;;;26.16;28.94;91652.75;5014282;28;20570;-74
2022/04/23 09:58:33;;;;;;;0.50;0.50;;;;;;;27.21;29.05;91642.72;4996855;28;20249;-73
2022/04/23 10:01:01;;;;;;;0.70;0.70;;;;;;;27.46;28.65;91632.72;5010343;28;20228;-73
2022/04/23 10:03:30;;;;;;;0.82;0.82;;;;;;;27.52;28.21;91619.81;5016658;28;20498;-73
2022/04/23 10:05:58;;;;;;;0.50;0.50;;;;;;;27.30;27.95;91648.56;5010127;28;22190;-73
2022/04/23 10:08:29;;;;;;;0.63;0.57;;;;;;;27.02;27.91;91654.53;5008077;28;20540;-74
2022/04/23 10:10:59;;;;;;;0.40;0.40;;;;;;;26.52;27.88;91655.41;5002872;28;20559;-73
2022/04/23 10:13:30;;;;;;;0.55;0.55;;;;;;;26.31;28.67;91637.22;5031375;28;20567;-73
2022/04/23 10:15:59;;;;;;;0.55;0.55;;;;;;;26.42;29.17;91636.75;5048566;28;20627;-74
2022/04/23 10:21:53;;;;;;;0.45;0.45;;;;;;;26.82;27.85;91637.94;5053311;27;20599;-74
2022/04/23 10:24:30;;;;;;;0.70;0.70;;;;;;;27.72;28.00;91611.34;5051208;27;20197;-75
2022/04/23 10:27:06;;;;;;;0.50;0.50;;;;;;;28.88;25.69;91645.00;5053269;28;20509;-72
2022/04/23 10:29:35;;;;;;;0.57;0.57;;;;;;;30.04;23.87;91656.63;5054528;28;20557;-75
2022/04/23 10:32:19;;;;;;;0.50;0.50;;;;;;;30.49;22.39;91673.13;5055115;28;21268;-74
2022/04/23 10:34:46;;;;;;;0.65;0.65;;;;;;;31.26;22.47;91672.97;5052700;28;20197;-73
2022/04/23 10:37:15;;;;;;;0.52;0.52;;;;;;;31.83;21.77;91678.94;5052554;27;20636;-74
2022/04/23 10:39:45;;;;;;;0.47;0.47;;;;;;;32.72;21.06;91688.94;5055025;28;20553;-73
2022/04/23 10:42:17;;;;;;;0.80;0.80;;;;;;;32.11;20.97;91684.50;5054135;28;20581;-73
2022/04/23 10:44:47;;;;;;;4.53;1.10;;;;;;;32.03;21.44;91678.78;5050789;28;20556;-73
2022/04/23 10:47:29;;;;;;;0.40;0.40;;;;;;;31.88;20.82;91679.13;5054312;28;20681;-72
2022/04/23 10:50:30;;;;;;;0.70;0.70;;;;;;;32.14;21.06;91690.34;5053535;28;20228;-73
2022/04/23 10:53:03;;;;;;;0.50;0.50;;;;;;;32.65;20.49;91680.34;5053472;28;20604;-73
2022/04/23 10:55:32;;;;;;;0.70;0.70;;;;;;;31.49;22.24;91663.75;5053098;28;20476;-72
2022/04/23 10:58:20;;;;;;;0.70;0.70;;;;;;;32.02;22.29;91654.44;5053490;28;20588;-73
2022/04/23 11:00:48;;;;;;;0.60;0.60;;;;;;;32.02;21.43;91669.31;5046059;28;20292;-74
2022/04/23 11:03:15;;;;;;;2.08;0.50;;;;;;;31.44;21.21;91676.63;5046216;28;20581;-73
2022/04/23 11:14:29;;;;;;;1.17;0.73;;;;;;;28.22;24.91;91631.81;5035779;28;20619;-74
2022/04/23 11:16:56;;;;;;;0.63;0.63;;;;;;;27.59;26.54;91632.84;5035250;28;20193;-75
2022/04/23 11:19:25;;;;;;;0.60;0.60;;;;;;;26.94;27.43;91625.31;5036878;28;20205;-75
2022/04/23 11:21:53;;;;;;;0.60;0.60;;;;;;;27.18;27.26;91604.19;5035850;28;20619;-75
2022/04/23 11:24:22;;;;;;;0.52;0.52;;;;;;;27.04;25.97;91631.00;5054267;28;20200;-74
2022/04/23 11:26:51;;;;;;;0.60;0.60;;;;;;;27.17;26.89;91629.31;5053870;28;20192;-75
2022/04/23 11:29:19;;;;;;;1.25;0.60;;;;;;;27.16;25.70;91640.66;5055188;28;20549;-74
2022/04/23 11:31:51;;;;;;;0.68;0.68;;;;;;;27.19;26.48;91644.69;5055521;28;20573;-75
2022/04/23 11:34:18;;;;;;;0.57;0.57;;;;;;;26.98;27.59;91631.75;5054973;28;20628;-74
2022/04/23 11:36:49;;;;;;;0.60;0.60;;;;;;;26.93;27.09;91627.09;5055810;28;20482;-75
2022/04/23 11:39:16;;;;;;;0.65;0.65;;;;;;;27.15;26.42;91641.66;5055541;28;20503;-76
2022/04/23 11:41:49;;;;;;;0.80;0.70;;;;;;;26.94;26.67;91641.69;5052165;28;20580;-74
2022/04/23 11:44:19;;;;;;;0.70;0.70;;;;;;;27.10;27.77;91612.09;5046612;28;20463;-74
2022/04/23 11:46:48;;;;;;;2.40;0.80;;;;;;;27.11;27.35;91632.66;5055597;28;20479;-75
2022/04/23 11:49:30;;;;;;;1.00;1.00;;;;;;;26.98;26.43;91636.94;5055366;28;20499;-74
2022/04/23 11:52:01;;;;;;;0.50;0.50;;;;;;;27.14;26.38;91647.84;5047590;28;20477;-75
2022/04/23 11:54:37;;;;;;;1.10;0.77;;;;;;;26.97;27.47;91643.91;5035235;28;20568;-74
2022/04/23 11:57:07;;;;;;;0.55;0.55;;;;;;;26.54;27.85;91637.88;5038459;28;20189;-75
2022/04/23 11:59:39;;;;;;;0.70;0.60;;;;;;;26.57;28.51;91634.13;5039162;28;20597;-75
2022/04/23 12:02:27;;;;;;;0.70;0.70;;;;;;;26.43;29.98;91609.84;5043186;28;20200;-77
2022/04/23 12:04:58;;;;;;;1.38;0.55;;;;;;;26.31;29.33;91582.81;5051958;28;20284;-75
2022/04/23 12:07:45;;;;;;;0.80;0.80;;;;;;;26.22;28.43;91627.94;5040980;28;20545;-75
2022/04/23 12:10:13;;;;;;;0.77;0.77;;;;;;;25.85;30.75;91590.88;5057302;28;20200;-75